createdAt,value
2019-04-25T00:04:08.188Z,72
2019-04-25T00:14:34.998Z,73
2019-04-25T00:19:54.003Z,72
2019-04-25T00:25:19.030Z,72
2019-04-25T00:35:49.441Z,72
2019-04-25T00:41:07.707Z,73
2019-04-25T00:46:29.919Z,73
2019-04-25T00:51:49.189Z,74
2019-04-25T00:57:08.630Z,76
2019-04-25T01:02:24.656Z,77
2019-04-25T01:07:46.483Z,77
2019-04-25T01:13:05.265Z,77
2019-04-25T01:28:56.023Z,76
2019-04-25T01:34:15.830Z,77
2019-04-25T01:39:31.915Z,77
2019-04-25T01:44:59.529Z,77
2019-04-25T01:50:17.199Z,77
2019-04-25T01:55:35.005Z,78
2019-04-25T02:00:48.498Z,79
2019-04-25T02:06:08.380Z,79
2019-04-25T02:11:25.400Z,79
2019-04-25T02:16:45.101Z,79
2019-04-25T02:27:18.719Z,80
2019-04-25T02:32:45.254Z,80
2019-04-25T02:38:10.058Z,80
2019-04-25T02:43:25.427Z,80
2019-04-25T02:48:43.884Z,80
2019-04-25T02:54:09.164Z,81
2019-04-25T02:59:28.534Z,81
2019-04-25T03:04:45.923Z,81
2019-04-25T03:10:10.611Z,83
2019-04-25T03:15:34.134Z,83
2019-04-25T03:20:55.098Z,83
2019-04-25T03:26:10.504Z,84
2019-04-25T03:31:28.602Z,84
2019-04-25T03:36:45.823Z,84
2019-04-25T03:42:06.220Z,84
2019-04-25T03:47:20.192Z,84
2019-04-25T03:52:37.724Z,84
2019-04-25T03:57:55.322Z,84
2019-04-25T04:03:11.881Z,84
2019-04-25T04:08:29.471Z,84
2019-04-25T04:13:45.455Z,83
2019-04-25T04:19:02.162Z,83
2019-04-25T04:24:19.322Z,83
2019-04-25T04:29:37.114Z,83
2019-04-25T04:34:58.522Z,82
2019-04-25T04:40:19.353Z,82
2019-04-25T04:45:34.305Z,82
2019-04-25T04:50:54.877Z,81
2019-04-25T04:56:19.366Z,81
2019-04-25T05:01:34.903Z,80
2019-04-25T05:12:00.879Z,80
2019-04-25T05:17:20.160Z,80
2019-04-25T05:22:38.252Z,79
2019-04-25T05:28:06.027Z,78
2019-04-25T05:33:26.852Z,77
2019-04-25T05:38:43.546Z,74
2019-04-25T05:44:05.863Z,73
2019-04-25T05:49:26.241Z,71
2019-04-25T05:54:40.883Z,70
2019-04-25T06:00:05.037Z,70
2019-04-25T06:05:28.368Z,67
2019-04-25T06:10:45.439Z,66
2019-04-25T06:16:06.754Z,65
2019-04-25T06:26:41.322Z,64
2019-04-25T07:08:58.196Z,63
2019-04-25T07:14:16.703Z,63
2019-04-25T07:25:00.245Z,63
2019-04-25T07:30:54.350Z,64
2019-04-25T07:36:09.462Z,63
2019-04-25T07:41:29.307Z,63
2019-04-25T07:52:07.611Z,63
2019-04-25T07:57:24.424Z,62
2019-04-25T08:02:44.404Z,62
2019-04-25T08:13:23.418Z,61
2019-04-25T08:18:40.836Z,61
2019-04-25T08:40:01.463Z,60
2019-04-25T08:45:21.981Z,60
2019-04-25T08:50:45.200Z,59
2019-04-25T09:06:45.229Z,59
2019-04-25T09:17:18.336Z,58
2019-04-25T09:22:41.952Z,58
2019-04-25T10:04:55.286Z,55
2019-04-25T10:31:17.054Z,54
2019-04-25T17:16:07.652Z,43
2019-04-25T17:21:21.372Z,44
2019-04-25T17:26:36.815Z,45
2019-04-25T17:31:51.115Z,45
2019-04-25T17:37:07.990Z,46
2019-04-25T17:47:56.029Z,48
2019-04-25T17:53:18.061Z,52
2019-04-25T17:58:37.681Z,52
2019-04-25T18:04:01.858Z,53
2019-04-25T18:09:16.143Z,53
2019-04-25T18:14:39.303Z,53
2019-04-25T18:19:57.028Z,53
2019-04-25T18:25:16.038Z,53
2019-04-25T18:30:38.992Z,53
2019-04-25T18:35:54.611Z,53
2019-04-25T18:41:15.860Z,53
2019-04-25T18:46:31.500Z,55
2019-04-25T18:51:59.339Z,56
2019-04-25T18:57:15.749Z,56
2019-04-25T19:02:32.889Z,57
2019-04-25T19:07:52.230Z,57
2019-04-25T19:13:14.424Z,57
2019-04-25T19:18:33.107Z,58
2019-04-25T19:23:53.238Z,58
2019-04-25T19:29:15.948Z,57
2019-04-25T19:34:38.852Z,57
2019-04-25T19:40:01.305Z,57
2019-04-25T19:45:19.984Z,58
2019-04-25T19:50:43.887Z,59
2019-04-25T19:55:58.171Z,59
2019-04-25T20:01:22.320Z,60
2019-04-25T20:06:36.253Z,60
2019-04-25T20:11:58.547Z,60
2019-04-25T20:17:20.912Z,59
2019-04-25T20:22:35.200Z,60
2019-04-25T20:27:56.053Z,60
2019-04-25T20:33:18.535Z,61
2019-04-25T20:38:47.370Z,60
2019-04-25T20:44:07.070Z,60
2019-04-25T20:49:24.735Z,60
2019-04-25T20:54:50.676Z,59
2019-04-25T21:00:04.347Z,60
2019-04-25T21:21:01.293Z,61
2019-04-25T21:31:33.493Z,62
2019-04-25T21:36:55.491Z,62
2019-04-25T21:42:13.273Z,62
2019-04-25T21:47:29.278Z,62
2019-04-25T21:52:51.648Z,63
2019-04-25T21:58:09.295Z,63
2019-04-25T22:03:26.604Z,64
2019-04-25T22:08:51.175Z,64
2019-04-25T22:14:16.354Z,64
2019-04-25T22:19:40.120Z,64
2019-04-25T22:25:03.426Z,65
2019-04-25T22:30:24.419Z,65
2019-04-25T22:35:48.537Z,66
2019-04-25T22:46:30.582Z,65
2019-04-25T22:51:49.263Z,65
2019-04-25T22:57:10.721Z,66
2019-04-25T23:02:34.277Z,66
2019-04-25T23:07:53.583Z,66
2019-04-25T23:13:13.861Z,66
2019-04-25T23:18:29.567Z,66
2019-04-25T23:23:50.725Z,67
2019-04-25T23:29:08.359Z,67
2019-04-25T23:34:24.882Z,67
2019-04-25T23:39:38.867Z,67
2019-04-25T23:44:56.947Z,67
2019-04-25T23:50:15.338Z,67
2019-04-25T23:55:35.011Z,67
